sensor_id;sensor_type;location;lat;lon;timestamp;P1;durP1;ratioP1;P2;durP2;ratioP2
38111;SDS011;64011;56.312;44.048;2023-04-19T00:01:01;33.92;;;16.67;;
38111;SDS011;64011;56.312;44.048;2023-04-19T00:03:02;36.35;;;16.80;;
38111;SDS011;64011;56.312;44.048;2023-04-19T00:05:05;35.80;;;16.20;;
38111;SDS011;64011;56.312;44.048;2023-04-19T00:07:06;33.80;;;16.60;;
38111;SDS011;64011;56.312;44.048;2023-04-19T00:09:07;35.50;;;16.30;;
38111;SDS011;64011;56.312;44.048;2023-04-19T00:11:08;34.38;;;16.88;;
38111;SDS011;64011;56.312;44.048;2023-04-19T00:13:09;31.73;;;17.65;;
38111;SDS011;64011;56.312;44.048;2023-04-19T00:15:10;33.00;;;16.52;;
38111;SDS011;64011;56.312;44.048;2023-04-19T00:17:11;37.20;;;16.92;;
38111;SDS011;64011;56.312;44.048;2023-04-19T00:19:12;32.70;;;16.65;;
38111;SDS011;64011;56.312;44.048;2023-04-19T00:21:14;31.60;;;16.58;;
38111;SDS011;64011;56.312;44.048;2023-04-19T00:23:15;32.45;;;16.95;;
38111;SDS011;64011;56.312;44.048;2023-04-19T00:25:16;31.45;;;16.45;;
38111;SDS011;64011;56.312;44.048;2023-04-19T00:27:17;36.17;;;15.93;;
38111;SDS011;64011;56.312;44.048;2023-04-19T00:29:18;32.28;;;15.95;;
38111;SDS011;64011;56.312;44.048;2023-04-19T00:31:19;33.38;;;16.17;;
38111;SDS011;64011;56.312;44.048;2023-04-19T00:33:19;35.70;;;17.75;;
38111;SDS011;64011;56.312;44.048;2023-04-19T00:35:20;34.55;;;16.45;;
38111;SDS011;64011;56.312;44.048;2023-04-19T00:37:23;32.20;;;17.00;;
38111;SDS011;64011;56.312;44.048;2023-04-19T00:39:25;39.25;;;18.67;;
38111;SDS011;64011;56.312;44.048;2023-04-19T00:41:26;38.15;;;17.33;;
38111;SDS011;64011;56.312;44.048;2023-04-19T00:43:27;38.38;;;16.58;;
38111;SDS011;64011;56.312;44.048;2023-04-19T00:45:28;40.25;;;18.48;;
38111;SDS011;64011;56.312;44.048;2023-04-19T00:47:29;42.78;;;20.52;;
38111;SDS011;64011;56.312;44.048;2023-04-19T00:49:30;44.58;;;19.70;;
38111;SDS011;64011;56.312;44.048;2023-04-19T00:51:31;40.08;;;18.92;;
38111;SDS011;64011;56.312;44.048;2023-04-19T00:53:34;35.70;;;17.15;;
38111;SDS011;64011;56.312;44.048;2023-04-19T00:55:35;38.65;;;17.70;;
38111;SDS011;64011;56.312;44.048;2023-04-19T00:57:36;37.95;;;18.10;;
38111;SDS011;64011;56.312;44.048;2023-04-19T00:59:37;39.92;;;21.30;;
38111;SDS011;64011;56.312;44.048;2023-04-19T01:01:38;46.10;;;20.67;;
38111;SDS011;64011;56.312;44.048;2023-04-19T01:03:39;39.28;;;19.23;;
38111;SDS011;64011;56.312;44.048;2023-04-19T01:05:40;45.05;;;20.15;;
38111;SDS011;64011;56.312;44.048;2023-04-19T01:07:41;44.58;;;20.92;;
38111;SDS011;64011;56.312;44.048;2023-04-19T01:09:44;49.15;;;21.10;;
38111;SDS011;64011;56.312;44.048;2023-04-19T01:11:45;58.63;;;25.67;;
38111;SDS011;64011;56.312;44.048;2023-04-19T01:13:46;48.03;;;23.52;;
38111;SDS011;64011;56.312;44.048;2023-04-19T01:15:47;48.13;;;23.05;;
38111;SDS011;64011;56.312;44.048;2023-04-19T01:17:48;55.20;;;23.58;;
38111;SDS011;64011;56.312;44.048;2023-04-19T01:19:48;56.75;;;25.13;;
38111;SDS011;64011;56.312;44.048;2023-04-19T01:21:49;56.08;;;25.05;;
38111;SDS011;64011;56.312;44.048;2023-04-19T01:23:52;58.03;;;25.35;;
38111;SDS011;64011;56.312;44.048;2023-04-19T01:25:52;47.22;;;22.27;;
38111;SDS011;64011;56.312;44.048;2023-04-19T01:27:53;50.05;;;21.20;;
38111;SDS011;64011;56.312;44.048;2023-04-19T01:29:54;47.80;;;21.23;;
38111;SDS011;64011;56.312;44.048;2023-04-19T01:31:55;44.22;;;20.48;;
38111;SDS011;64011;56.312;44.048;2023-04-19T01:33:56;46.65;;;20.35;;
38111;SDS011;64011;56.312;44.048;2023-04-19T01:35:57;33.63;;;18.58;;
38111;SDS011;64011;56.312;44.048;2023-04-19T01:37:58;35.13;;;18.13;;
38111;SDS011;64011;56.312;44.048;2023-04-19T01:40:00;33.83;;;16.75;;
38111;SDS011;64011;56.312;44.048;2023-04-19T01:42:01;43.38;;;20.67;;
38111;SDS011;64011;56.312;44.048;2023-04-19T01:44:02;32.90;;;15.80;;
38111;SDS011;64011;56.312;44.048;2023-04-19T01:46:03;26.92;;;15.70;;
38111;SDS011;64011;56.312;44.048;2023-04-19T01:48:04;36.10;;;16.27;;
38111;SDS011;64011;56.312;44.048;2023-04-19T01:50:06;43.83;;;21.00;;
38111;SDS011;64011;56.312;44.048;2023-04-19T01:52:07;48.33;;;22.08;;
38111;SDS011;64011;56.312;44.048;2023-04-19T01:54:08;46.35;;;21.15;;
38111;SDS011;64011;56.312;44.048;2023-04-19T01:56:10;44.85;;;20.45;;
38111;SDS011;64011;56.312;44.048;2023-04-19T01:58:11;42.42;;;20.52;;
38111;SDS011;64011;56.312;44.048;2023-04-19T02:00:13;37.38;;;20.58;;
38111;SDS011;64011;56.312;44.048;2023-04-19T02:02:14;41.92;;;20.80;;
38111;SDS011;64011;56.312;44.048;2023-04-19T02:04:15;41.50;;;20.00;;
38111;SDS011;64011;56.312;44.048;2023-04-19T02:06:18;38.33;;;18.98;;
38111;SDS011;64011;56.312;44.048;2023-04-19T02:08:18;35.78;;;18.25;;
38111;SDS011;64011;56.312;44.048;2023-04-19T02:10:20;44.92;;;19.73;;
38111;SDS011;64011;56.312;44.048;2023-04-19T02:12:23;45.10;;;20.90;;
38111;SDS011;64011;56.312;44.048;2023-04-19T02:14:24;47.03;;;20.08;;
38111;SDS011;64011;56.312;44.048;2023-04-19T02:16:25;41.88;;;19.65;;
38111;SDS011;64011;56.312;44.048;2023-04-19T02:18:26;39.72;;;20.02;;
38111;SDS011;64011;56.312;44.048;2023-04-19T02:20:27;41.13;;;21.02;;
38111;SDS011;64011;56.312;44.048;2023-04-19T02:22:28;38.00;;;19.20;;
38111;SDS011;64011;56.312;44.048;2023-04-19T02:24:29;33.30;;;16.45;;
38111;SDS011;64011;56.312;44.048;2023-04-19T02:26:30;34.83;;;17.23;;
38111;SDS011;64011;56.312;44.048;2023-04-19T02:28:32;39.28;;;17.40;;
38111;SDS011;64011;56.312;44.048;2023-04-19T02:30:33;37.28;;;17.67;;
38111;SDS011;64011;56.312;44.048;2023-04-19T02:32:36;33.30;;;16.95;;
38111;SDS011;64011;56.312;44.048;2023-04-19T02:34:36;35.63;;;16.08;;
38111;SDS011;64011;56.312;44.048;2023-04-19T02:36:38;32.92;;;15.77;;
38111;SDS011;64011;56.312;44.048;2023-04-19T02:38:39;34.25;;;15.35;;
38111;SDS011;64011;56.312;44.048;2023-04-19T02:40:40;32.05;;;15.13;;
38111;SDS011;64011;56.312;44.048;2023-04-19T02:42:40;33.95;;;15.52;;
38111;SDS011;64011;56.312;44.048;2023-04-19T02:44:45;33.78;;;15.95;;
38111;SDS011;64011;56.312;44.048;2023-04-19T02:46:47;32.60;;;15.80;;
38111;SDS011;64011;56.312;44.048;2023-04-19T02:48:48;32.35;;;15.07;;
38111;SDS011;64011;56.312;44.048;2023-04-19T02:50:49;30.17;;;14.90;;
38111;SDS011;64011;56.312;44.048;2023-04-19T02:52:50;33.30;;;15.18;;
38111;SDS011;64011;56.312;44.048;2023-04-19T02:54:51;32.05;;;16.02;;
38111;SDS011;64011;56.312;44.048;2023-04-19T02:56:52;35.67;;;15.35;;
38111;SDS011;64011;56.312;44.048;2023-04-19T02:58:52;32.58;;;16.77;;
38111;SDS011;64011;56.312;44.048;2023-04-19T03:00:55;31.77;;;16.08;;
38111;SDS011;64011;56.312;44.048;2023-04-19T03:02:56;36.88;;;15.52;;
38111;SDS011;64011;56.312;44.048;2023-04-19T03:04:57;32.35;;;15.38;;
38111;SDS011;64011;56.312;44.048;2023-04-19T03:06:58;30.40;;;15.93;;
38111;SDS011;64011;56.312;44.048;2023-04-19T03:08:59;34.28;;;15.63;;
38111;SDS011;64011;56.312;44.048;2023-04-19T03:11:00;31.27;;;15.60;;
38111;SDS011;64011;56.312;44.048;2023-04-19T03:13:02;33.83;;;15.00;;
38111;SDS011;64011;56.312;44.048;2023-04-19T03:15:03;30.15;;;14.52;;
38111;SDS011;64011;56.312;44.048;2023-04-19T03:17:06;33.83;;;15.25;;
38111;SDS011;64011;56.312;44.048;2023-04-19T03:19:09;29.05;;;15.95;;
38111;SDS011;64011;56.312;44.048;2023-04-19T03:21:10;33.78;;;16.23;;
38111;SDS011;64011;56.312;44.048;2023-04-19T03:23:10;28.80;;;15.70;;
38111;SDS011;64011;56.312;44.048;2023-04-19T03:25:11;30.15;;;14.85;;
38111;SDS011;64011;56.312;44.048;2023-04-19T03:27:12;31.75;;;16.77;;
38111;SDS011;64011;56.312;44.048;2023-04-19T03:29:13;35.60;;;17.30;;
38111;SDS011;64011;56.312;44.048;2023-04-19T03:31:14;36.38;;;18.55;;
38111;SDS011;64011;56.312;44.048;2023-04-19T03:33:16;38.67;;;18.50;;
38111;SDS011;64011;56.312;44.048;2023-04-19T03:35:17;33.55;;;17.80;;
38111;SDS011;64011;56.312;44.048;2023-04-19T03:37:18;31.13;;;17.20;;
38111;SDS011;64011;56.312;44.048;2023-04-19T03:39:19;36.53;;;19.55;;
38111;SDS011;64011;56.312;44.048;2023-04-19T03:41:21;43.58;;;20.85;;
38111;SDS011;64011;56.312;44.048;2023-04-19T03:43:22;36.20;;;19.15;;
38111;SDS011;64011;56.312;44.048;2023-04-19T03:45:23;37.17;;;20.48;;
38111;SDS011;64011;56.312;44.048;2023-04-19T03:47:24;39.85;;;20.08;;
38111;SDS011;64011;56.312;44.048;2023-04-19T03:49:26;34.03;;;20.13;;
38111;SDS011;64011;56.312;44.048;2023-04-19T03:51:27;37.28;;;19.75;;
38111;SDS011;64011;56.312;44.048;2023-04-19T03:53:28;35.65;;;20.00;;
38111;SDS011;64011;56.312;44.048;2023-04-19T03:55:29;41.70;;;22.73;;
38111;SDS011;64011;56.312;44.048;2023-04-19T03:57:31;38.80;;;21.27;;
38111;SDS011;64011;56.312;44.048;2023-04-19T03:59:32;37.78;;;20.17;;
38111;SDS011;64011;56.312;44.048;2023-04-19T04:01:34;41.08;;;22.83;;
38111;SDS011;64011;56.312;44.048;2023-04-19T04:03:36;41.85;;;23.58;;
38111;SDS011;64011;56.312;44.048;2023-04-19T04:05:38;35.22;;;19.73;;
38111;SDS011;64011;56.312;44.048;2023-04-19T04:07:39;31.48;;;17.13;;
38111;SDS011;64011;56.312;44.048;2023-04-19T04:09:40;36.03;;;19.25;;
38111;SDS011;64011;56.312;44.048;2023-04-19T04:11:41;33.60;;;19.23;;
38111;SDS011;64011;56.312;44.048;2023-04-19T04:13:42;34.30;;;19.02;;
38111;SDS011;64011;56.312;44.048;2023-04-19T04:15:42;32.65;;;17.88;;
38111;SDS011;64011;56.312;44.048;2023-04-19T04:17:43;36.40;;;19.40;;
38111;SDS011;64011;56.312;44.048;2023-04-19T04:19:44;32.90;;;17.70;;
38111;SDS011;64011;56.312;44.048;2023-04-19T04:21:46;30.50;;;16.13;;
38111;SDS011;64011;56.312;44.048;2023-04-19T04:23:47;27.50;;;13.57;;
38111;SDS011;64011;56.312;44.048;2023-04-19T04:25:54;25.13;;;12.35;;
38111;SDS011;64011;56.312;44.048;2023-04-19T04:27:56;25.90;;;13.43;;
38111;SDS011;64011;56.312;44.048;2023-04-19T04:29:56;28.00;;;13.50;;
38111;SDS011;64011;56.312;44.048;2023-04-19T04:31:57;28.98;;;14.10;;
38111;SDS011;64011;56.312;44.048;2023-04-19T04:33:58;29.15;;;14.77;;
38111;SDS011;64011;56.312;44.048;2023-04-19T04:35:59;33.40;;;17.08;;
38111;SDS011;64011;56.312;44.048;2023-04-19T04:38:02;45.20;;;19.10;;
38111;SDS011;64011;56.312;44.048;2023-04-19T04:40:03;40.92;;;21.58;;
38111;SDS011;64011;56.312;44.048;2023-04-19T04:42:05;37.53;;;20.70;;
38111;SDS011;64011;56.312;44.048;2023-04-19T04:44:06;35.30;;;21.02;;
38111;SDS011;64011;56.312;44.048;2023-04-19T04:46:07;34.35;;;19.50;;
38111;SDS011;64011;56.312;44.048;2023-04-19T04:48:07;34.55;;;20.38;;
38111;SDS011;64011;56.312;44.048;2023-04-19T04:50:09;39.78;;;22.23;;
38111;SDS011;64011;56.312;44.048;2023-04-19T04:52:10;39.83;;;21.10;;
38111;SDS011;64011;56.312;44.048;2023-04-19T04:54:12;38.92;;;22.23;;
38111;SDS011;64011;56.312;44.048;2023-04-19T04:56:13;37.00;;;21.95;;
38111;SDS011;64011;56.312;44.048;2023-04-19T04:58:14;35.88;;;22.38;;
38111;SDS011;64011;56.312;44.048;2023-04-19T05:00:15;40.85;;;21.90;;
38111;SDS011;64011;56.312;44.048;2023-04-19T05:02:16;42.05;;;20.92;;
38111;SDS011;64011;56.312;44.048;2023-04-19T05:04:17;39.75;;;22.13;;
38111;SDS011;64011;56.312;44.048;2023-04-19T05:06:18;39.38;;;21.98;;
38111;SDS011;64011;56.312;44.048;2023-04-19T05:08:19;35.83;;;21.05;;
38111;SDS011;64011;56.312;44.048;2023-04-19T05:10:21;36.75;;;20.60;;
38111;SDS011;64011;56.312;44.048;2023-04-19T05:12:22;34.55;;;22.13;;
38111;SDS011;64011;56.312;44.048;2023-04-19T05:14:23;39.40;;;20.70;;
38111;SDS011;64011;56.312;44.048;2023-04-19T05:16:24;36.63;;;20.25;;
38111;SDS011;64011;56.312;44.048;2023-04-19T05:18:25;42.00;;;21.58;;
38111;SDS011;64011;56.312;44.048;2023-04-19T05:20:28;36.25;;;19.25;;
38111;SDS011;64011;56.312;44.048;2023-04-19T05:22:29;33.55;;;20.52;;
38111;SDS011;64011;56.312;44.048;2023-04-19T05:24:30;32.28;;;18.52;;
38111;SDS011;64011;56.312;44.048;2023-04-19T05:26:32;35.20;;;17.83;;
38111;SDS011;64011;56.312;44.048;2023-04-19T05:28:33;25.73;;;13.63;;
38111;SDS011;64011;56.312;44.048;2023-04-19T05:30:34;28.25;;;13.20;;
38111;SDS011;64011;56.312;44.048;2023-04-19T05:32:34;27.48;;;13.13;;
38111;SDS011;64011;56.312;44.048;2023-04-19T05:34:35;26.75;;;13.45;;
38111;SDS011;64011;56.312;44.048;2023-04-19T05:36:36;30.02;;;13.45;;
38111;SDS011;64011;56.312;44.048;2023-04-19T05:38:37;25.85;;;13.27;;
38111;SDS011;64011;56.312;44.048;2023-04-19T05:40:38;27.20;;;12.57;;
38111;SDS011;64011;56.312;44.048;2023-04-19T05:42:40;28.70;;;12.65;;
38111;SDS011;64011;56.312;44.048;2023-04-19T05:44:41;26.67;;;13.57;;
38111;SDS011;64011;56.312;44.048;2023-04-19T05:46:42;22.65;;;11.77;;
38111;SDS011;64011;56.312;44.048;2023-04-19T05:48:43;27.75;;;12.15;;
38111;SDS011;64011;56.312;44.048;2023-04-19T05:50:44;21.98;;;12.65;;
38111;SDS011;64011;56.312;44.048;2023-04-19T05:52:45;27.73;;;12.52;;
38111;SDS011;64011;56.312;44.048;2023-04-19T05:54:45;23.77;;;12.40;;
38111;SDS011;64011;56.312;44.048;2023-04-19T05:56:46;23.33;;;13.15;;
38111;SDS011;64011;56.312;44.048;2023-04-19T05:58:48;25.08;;;13.45;;
38111;SDS011;64011;56.312;44.048;2023-04-19T06:00:50;28.80;;;14.55;;
38111;SDS011;64011;56.312;44.048;2023-04-19T06:02:51;28.00;;;15.45;;
38111;SDS011;64011;56.312;44.048;2023-04-19T06:04:51;27.30;;;16.20;;
38111;SDS011;64011;56.312;44.048;2023-04-19T06:06:52;29.23;;;17.15;;
38111;SDS011;64011;56.312;44.048;2023-04-19T06:08:53;24.83;;;15.25;;
38111;SDS011;64011;56.312;44.048;2023-04-19T06:10:54;24.95;;;14.88;;
38111;SDS011;64011;56.312;44.048;2023-04-19T06:12:55;33.08;;;18.25;;
38111;SDS011;64011;56.312;44.048;2023-04-19T06:14:57;31.55;;;17.52;;
38111;SDS011;64011;56.312;44.048;2023-04-19T06:16:58;32.20;;;19.40;;
38111;SDS011;64011;56.312;44.048;2023-04-19T06:18:59;30.65;;;16.45;;
38111;SDS011;64011;56.312;44.048;2023-04-19T06:21:00;30.70;;;16.25;;
38111;SDS011;64011;56.312;44.048;2023-04-19T06:23:01;27.73;;;14.63;;
38111;SDS011;64011;56.312;44.048;2023-04-19T06:25:02;26.92;;;13.52;;
38111;SDS011;64011;56.312;44.048;2023-04-19T06:27:04;23.35;;;12.60;;
38111;SDS011;64011;56.312;44.048;2023-04-19T06:29:05;22.58;;;12.32;;
38111;SDS011;64011;56.312;44.048;2023-04-19T06:31:07;25.73;;;12.20;;
38111;SDS011;64011;56.312;44.048;2023-04-19T06:33:08;22.65;;;11.50;;
38111;SDS011;64011;56.312;44.048;2023-04-19T06:35:10;24.83;;;11.48;;
38111;SDS011;64011;56.312;44.048;2023-04-19T06:37:11;25.50;;;11.70;;
38111;SDS011;64011;56.312;44.048;2023-04-19T06:39:11;21.02;;;10.88;;
38111;SDS011;64011;56.312;44.048;2023-04-19T06:41:12;23.67;;;11.13;;
38111;SDS011;64011;56.312;44.048;2023-04-19T06:43:13;21.63;;;10.65;;
38111;SDS011;64011;56.312;44.048;2023-04-19T06:45:14;24.05;;;11.40;;
38111;SDS011;64011;56.312;44.048;2023-04-19T06:47:16;23.75;;;11.63;;
38111;SDS011;64011;56.312;44.048;2023-04-19T06:49:17;21.58;;;11.57;;
38111;SDS011;64011;56.312;44.048;2023-04-19T06:51:18;21.17;;;10.25;;
38111;SDS011;64011;56.312;44.048;2023-04-19T06:53:19;19.30;;;10.40;;
38111;SDS011;64011;56.312;44.048;2023-04-19T06:55:20;20.95;;;9.82;;
38111;SDS011;64011;56.312;44.048;2023-04-19T06:57:21;22.58;;;11.18;;
38111;SDS011;64011;56.312;44.048;2023-04-19T06:59:22;22.80;;;11.52;;
38111;SDS011;64011;56.312;44.048;2023-04-19T07:01:23;24.75;;;11.95;;
38111;SDS011;64011;56.312;44.048;2023-04-19T07:03:25;22.70;;;10.70;;
38111;SDS011;64011;56.312;44.048;2023-04-19T07:05:26;23.13;;;11.77;;
38111;SDS011;64011;56.312;44.048;2023-04-19T07:07:27;22.17;;;11.18;;
38111;SDS011;64011;56.312;44.048;2023-04-19T07:09:28;21.30;;;11.80;;
38111;SDS011;64011;56.312;44.048;2023-04-19T07:11:29;18.98;;;9.40;;
38111;SDS011;64011;56.312;44.048;2023-04-19T07:13:30;20.77;;;10.63;;
38111;SDS011;64011;56.312;44.048;2023-04-19T07:15:31;20.25;;;10.35;;
38111;SDS011;64011;56.312;44.048;2023-04-19T07:17:33;22.40;;;10.05;;
38111;SDS011;64011;56.312;44.048;2023-04-19T07:19:35;22.80;;;11.90;;
38111;SDS011;64011;56.312;44.048;2023-04-19T07:21:36;21.63;;;11.38;;
38111;SDS011;64011;56.312;44.048;2023-04-19T07:23:37;25.45;;;11.73;;
38111;SDS011;64011;56.312;44.048;2023-04-19T07:25:38;23.48;;;11.68;;
38111;SDS011;64011;56.312;44.048;2023-04-19T07:27:39;20.90;;;10.27;;
38111;SDS011;64011;56.312;44.048;2023-04-19T07:29:39;21.33;;;11.00;;
38111;SDS011;64011;56.312;44.048;2023-04-19T07:31:40;19.38;;;10.05;;
38111;SDS011;64011;56.312;44.048;2023-04-19T07:33:41;20.52;;;11.30;;
38111;SDS011;64011;56.312;44.048;2023-04-19T07:35:43;20.00;;;10.98;;
38111;SDS011;64011;56.312;44.048;2023-04-19T07:37:44;21.23;;;10.00;;
38111;SDS011;64011;56.312;44.048;2023-04-19T07:39:45;17.58;;;8.40;;
38111;SDS011;64011;56.312;44.048;2023-04-19T07:41:46;19.90;;;9.18;;
38111;SDS011;64011;56.312;44.048;2023-04-19T07:43:47;17.58;;;8.00;;
38111;SDS011;64011;56.312;44.048;2023-04-19T07:45:48;20.23;;;9.27;;
38111;SDS011;64011;56.312;44.048;2023-04-19T07:47:49;18.20;;;9.65;;
38111;SDS011;64011;56.312;44.048;2023-04-19T07:49:50;20.52;;;8.35;;
38111;SDS011;64011;56.312;44.048;2023-04-19T07:51:53;16.90;;;7.93;;
38111;SDS011;64011;56.312;44.048;2023-04-19T07:53:54;18.38;;;7.78;;
38111;SDS011;64011;56.312;44.048;2023-04-19T07:55:55;22.73;;;8.27;;
38111;SDS011;64011;56.312;44.048;2023-04-19T07:57:55;17.25;;;6.93;;
38111;SDS011;64011;56.312;44.048;2023-04-19T07:59:56;17.20;;;7.68;;
38111;SDS011;64011;56.312;44.048;2023-04-19T08:01:57;17.92;;;7.63;;
38111;SDS011;64011;56.312;44.048;2023-04-19T08:03:58;19.60;;;7.82;;
38111;SDS011;64011;56.312;44.048;2023-04-19T08:05:59;16.63;;;7.20;;
38111;SDS011;64011;56.312;44.048;2023-04-19T08:08:02;15.80;;;7.13;;
38111;SDS011;64011;56.312;44.048;2023-04-19T08:10:03;16.75;;;7.03;;
38111;SDS011;64011;56.312;44.048;2023-04-19T08:12:04;15.23;;;6.30;;
38111;SDS011;64011;56.312;44.048;2023-04-19T08:14:06;13.88;;;6.28;;
38111;SDS011;64011;56.312;44.048;2023-04-19T08:16:06;20.65;;;6.70;;
38111;SDS011;64011;56.312;44.048;2023-04-19T08:18:07;20.35;;;6.95;;
38111;SDS011;64011;56.312;44.048;2023-04-19T08:20:09;15.38;;;7.30;;
38111;SDS011;64011;56.312;44.048;2023-04-19T08:22:10;15.75;;;6.55;;
38111;SDS011;64011;56.312;44.048;2023-04-19T08:24:12;16.77;;;6.65;;
38111;SDS011;64011;56.312;44.048;2023-04-19T08:26:13;15.63;;;6.75;;
38111;SDS011;64011;56.312;44.048;2023-04-19T08:28:14;14.48;;;6.05;;
38111;SDS011;64011;56.312;44.048;2023-04-19T08:30:15;15.52;;;6.15;;
38111;SDS011;64011;56.312;44.048;2023-04-19T08:32:16;15.13;;;6.50;;
38111;SDS011;64011;56.312;44.048;2023-04-19T08:34:17;16.80;;;6.45;;
38111;SDS011;64011;56.312;44.048;2023-04-19T08:36:18;15.13;;;5.95;;
38111;SDS011;64011;56.312;44.048;2023-04-19T08:38:18;14.07;;;6.00;;
38111;SDS011;64011;56.312;44.048;2023-04-19T08:40:21;16.98;;;5.82;;
38111;SDS011;64011;56.312;44.048;2023-04-19T08:42:22;13.23;;;5.97;;
38111;SDS011;64011;56.312;44.048;2023-04-19T08:44:22;14.90;;;6.05;;
38111;SDS011;64011;56.312;44.048;2023-04-19T08:46:24;13.95;;;5.63;;
38111;SDS011;64011;56.312;44.048;2023-04-19T08:48:25;12.90;;;5.07;;
38111;SDS011;64011;56.312;44.048;2023-04-19T08:50:26;13.00;;;5.15;;
38111;SDS011;64011;56.312;44.048;2023-04-19T08:52:27;12.50;;;5.40;;
38111;SDS011;64011;56.312;44.048;2023-04-19T08:54:29;14.82;;;5.05;;
38111;SDS011;64011;56.312;44.048;2023-04-19T08:56:32;12.20;;;4.95;;
38111;SDS011;64011;56.312;44.048;2023-04-19T08:58:33;70.35;;;9.68;;
38111;SDS011;64011;56.312;44.048;2023-04-19T09:00:36;16.95;;;5.50;;
38111;SDS011;64011;56.312;44.048;2023-04-19T09:02:44;14.50;;;4.97;;
38111;SDS011;64011;56.312;44.048;2023-04-19T09:04:46;13.18;;;5.38;;
38111;SDS011;64011;56.312;44.048;2023-04-19T09:06:47;11.48;;;4.70;;
38111;SDS011;64011;56.312;44.048;2023-04-19T09:08:48;10.27;;;4.63;;
38111;SDS011;64011;56.312;44.048;2023-04-19T09:10:52;11.27;;;4.72;;
38111;SDS011;64011;56.312;44.048;2023-04-19T09:13:02;13.25;;;5.03;;
38111;SDS011;64011;56.312;44.048;2023-04-19T09:15:04;10.63;;;4.70;;
38111;SDS011;64011;56.312;44.048;2023-04-19T09:17:12;12.18;;;5.20;;
38111;SDS011;64011;56.312;44.048;2023-04-19T09:19:13;12.88;;;5.13;;
38111;SDS011;64011;56.312;44.048;2023-04-19T09:21:16;12.57;;;5.30;;
38111;SDS011;64011;56.312;44.048;2023-04-19T09:23:27;14.18;;;5.07;;
38111;SDS011;64011;56.312;44.048;2023-04-19T09:25:28;13.20;;;4.95;;
38111;SDS011;64011;56.312;44.048;2023-04-19T09:27:29;13.63;;;4.70;;
38111;SDS011;64011;56.312;44.048;2023-04-19T09:29:32;12.18;;;5.00;;
38111;SDS011;64011;56.312;44.048;2023-04-19T09:31:34;13.35;;;5.00;;
38111;SDS011;64011;56.312;44.048;2023-04-19T09:33:36;15.07;;;4.88;;
38111;SDS011;64011;56.312;44.048;2023-04-19T09:35:41;10.90;;;4.57;;
38111;SDS011;64011;56.312;44.048;2023-04-19T09:37:56;12.15;;;4.75;;
38111;SDS011;64011;56.312;44.048;2023-04-19T09:39:58;10.73;;;4.78;;
38111;SDS011;64011;56.312;44.048;2023-04-19T09:41:59;14.10;;;4.72;;
38111;SDS011;64011;56.312;44.048;2023-04-19T09:44:08;11.18;;;4.47;;
38111;SDS011;64011;56.312;44.048;2023-04-19T09:46:12;12.68;;;4.55;;
38111;SDS011;64011;56.312;44.048;2023-04-19T09:48:29;11.43;;;4.72;;
38111;SDS011;64011;56.312;44.048;2023-04-19T09:50:30;14.75;;;5.10;;
38111;SDS011;64011;56.312;44.048;2023-04-19T09:52:31;20.58;;;5.18;;
38111;SDS011;64011;56.312;44.048;2023-04-19T09:54:32;14.65;;;5.00;;
38111;SDS011;64011;56.312;44.048;2023-04-19T09:56:33;12.73;;;5.00;;
38111;SDS011;64011;56.312;44.048;2023-04-19T09:58:35;13.63;;;5.15;;
38111;SDS011;64011;56.312;44.048;2023-04-19T10:00:36;14.45;;;4.85;;
38111;SDS011;64011;56.312;44.048;2023-04-19T10:02:39;11.43;;;5.10;;
38111;SDS011;64011;56.312;44.048;2023-04-19T10:04:41;13.05;;;4.50;;
38111;SDS011;64011;56.312;44.048;2023-04-19T10:06:42;12.18;;;4.70;;
38111;SDS011;64011;56.312;44.048;2023-04-19T10:08:43;14.05;;;4.97;;
38111;SDS011;64011;56.312;44.048;2023-04-19T10:10:44;13.98;;;5.00;;
38111;SDS011;64011;56.312;44.048;2023-04-19T10:12:47;13.02;;;4.70;;
38111;SDS011;64011;56.312;44.048;2023-04-19T10:14:48;15.15;;;4.72;;
38111;SDS011;64011;56.312;44.048;2023-04-19T10:16:50;14.27;;;5.03;;
38111;SDS011;64011;56.312;44.048;2023-04-19T10:18:54;12.55;;;5.13;;
38111;SDS011;64011;56.312;44.048;2023-04-19T10:20:57;11.82;;;4.45;;
38111;SDS011;64011;56.312;44.048;2023-04-19T10:22:58;13.77;;;4.90;;
38111;SDS011;64011;56.312;44.048;2023-04-19T10:25:09;13.93;;;5.30;;
38111;SDS011;64011;56.312;44.048;2023-04-19T10:27:11;10.38;;;4.45;;
38111;SDS011;64011;56.312;44.048;2023-04-19T10:29:13;13.45;;;4.88;;
38111;SDS011;64011;56.312;44.048;2023-04-19T10:31:13;11.43;;;4.68;;
38111;SDS011;64011;56.312;44.048;2023-04-19T10:33:14;18.63;;;4.53;;
38111;SDS011;64011;56.312;44.048;2023-04-19T10:35:26;11.57;;;4.30;;
38111;SDS011;64011;56.312;44.048;2023-04-19T10:37:27;12.73;;;4.65;;
38111;SDS011;64011;56.312;44.048;2023-04-19T10:39:38;11.70;;;4.32;;
38111;SDS011;64011;56.312;44.048;2023-04-19T10:46:13;14.57;;;4.55;;
38111;SDS011;64011;56.312;44.048;2023-04-19T10:48:31;13.45;;;4.78;;
38111;SDS011;64011;56.312;44.048;2023-04-19T10:53:05;12.95;;;4.93;;
38111;SDS011;64011;56.312;44.048;2023-04-19T10:55:59;11.18;;;4.38;;
38111;SDS011;64011;56.312;44.048;2023-04-19T10:58:01;11.40;;;4.30;;
38111;SDS011;64011;56.312;44.048;2023-04-19T11:00:17;12.35;;;4.50;;
38111;SDS011;64011;56.312;44.048;2023-04-19T11:02:25;9.52;;;3.90;;
38111;SDS011;64011;56.312;44.048;2023-04-19T11:07:02;12.43;;;3.75;;
38111;SDS011;64011;56.312;44.048;2023-04-19T11:09:03;10.65;;;3.70;;
38111;SDS011;64011;56.312;44.048;2023-04-19T11:11:04;10.88;;;3.83;;
38111;SDS011;64011;56.312;44.048;2023-04-19T11:13:05;10.10;;;3.70;;
38111;SDS011;64011;56.312;44.048;2023-04-19T11:15:06;10.95;;;4.18;;
38111;SDS011;64011;56.312;44.048;2023-04-19T11:17:14;9.68;;;3.97;;
38111;SDS011;64011;56.312;44.048;2023-04-19T11:19:16;11.33;;;4.20;;
38111;SDS011;64011;56.312;44.048;2023-04-19T11:21:17;12.15;;;4.40;;
38111;SDS011;64011;56.312;44.048;2023-04-19T11:23:19;11.32;;;3.88;;
38111;SDS011;64011;56.312;44.048;2023-04-19T11:25:20;10.93;;;4.00;;
38111;SDS011;64011;56.312;44.048;2023-04-19T11:27:24;11.68;;;4.13;;
38111;SDS011;64011;56.312;44.048;2023-04-19T11:29:25;11.93;;;4.60;;
38111;SDS011;64011;56.312;44.048;2023-04-19T11:31:26;10.48;;;4.45;;
38111;SDS011;64011;56.312;44.048;2023-04-19T11:33:26;10.63;;;4.40;;
38111;SDS011;64011;56.312;44.048;2023-04-19T11:35:32;15.50;;;4.20;;
38111;SDS011;64011;56.312;44.048;2023-04-19T11:37:34;19.15;;;4.32;;
38111;SDS011;64011;56.312;44.048;2023-04-19T11:39:45;11.70;;;4.03;;
38111;SDS011;64011;56.312;44.048;2023-04-19T11:43:46;12.05;;;4.20;;
38111;SDS011;64011;56.312;44.048;2023-04-19T11:45:47;16.00;;;4.20;;
38111;SDS011;64011;56.312;44.048;2023-04-19T11:47:49;10.68;;;4.32;;
38111;SDS011;64011;56.312;44.048;2023-04-19T11:49:50;12.43;;;4.75;;
38111;SDS011;64011;56.312;44.048;2023-04-19T11:51:53;13.43;;;4.40;;
38111;SDS011;64011;56.312;44.048;2023-04-19T11:53:55;10.32;;;3.97;;
38111;SDS011;64011;56.312;44.048;2023-04-19T11:56:03;16.25;;;4.75;;
38111;SDS011;64011;56.312;44.048;2023-04-19T12:00:06;14.38;;;4.20;;